Carol Ann — WDG7623 — position and weather

sailwx.info

Track history (hours):
 
Tides and Currents Weather Stations Pressure Air Temp Water Temp Dewpoint Dewpoint Depression Visibility Wind Speed Wind Dir Waves Ship Positions

Carol Ann

Owner: Harangody, James J, West Palm Beach, FL. More information available from US FCC via Universal Licensing System and Coast Guard Vessel Documentation Center.

Last reported at 2018-Mar-21 12:31 UTC. Time now 2018-Jun-21 09:59 UTC.
Position N 24°18' W 076°39'.
Warning: this ship's position is months out of date.

Length 27 m.

Type: Pleasure craft. MMSI: 338877000.

Date/timePositionNaut miles runAvg speedWind from/ knotsBaromVisibWave heightAir tempDewpointWater temp
2018-Mar-21 12:31N 24°18' W 076°39'111.2
2018-Mar-21 12:26N 24°18' W 076°38'511.1
2018-Mar-21 11:58N 24°14' W 076°34'511.1
2018-Mar-21 11:29N 24°11' W 076°30'2 3.1
2018-Mar-21 10:59N 24°10' W 076°29'0 0.0
2018-Mar-21 10:08N 24°10' W 076°29'0 0.0
2018-Mar-21 09:59N 24°10' W 076°29'0 0.0
2018-Mar-21 09:23N 24°10' W 076°29'0 0.0
2018-Mar-21 08:59N 24°10' W 076°29'0 0.0
2018-Mar-21 08:23N 24°10' W 076°29'0 0.0
2018-Mar-21 07:59N 24°10' W 076°29'0 0.0
2018-Mar-21 07:29N 24°10' W 076°29'0 0.0
2018-Mar-21 06:56N 24°10' W 076°29'0 0.0
2018-Mar-21 06:08N 24°10' W 076°29'0 0.0
2018-Mar-21 05:56N 24°10' W 076°29'0 0.0
2018-Mar-21 05:20N 24°10' W 076°29'0 0.0
2018-Mar-21 04:50N 24°10' W 076°29'0 0.0
2018-Mar-21 04:26N 24°10' W 076°29'0 0.0
2018-Mar-21 03:59N 24°10' W 076°29'0 0.0
2018-Mar-21 03:29N 24°10' W 076°29'0 0.0
2018-Mar-21 02:56N 24°10' W 076°29'0 0.0
2018-Mar-21 02:26N 24°10' W 076°29'0 0.0
2018-Mar-21 01:59N 24°10' W 076°29'0 0.0
2018-Mar-20 23:59N 24°10' W 076°29'0 0.0
2018-Mar-20 23:28N 24°10' W 076°29'0 0.0
2018-Mar-20 22:58N 24°10' W 076°29'0 0.0
2018-Mar-20 22:28N 24°10' W 076°29'0 0.0
2018-Mar-20 21:58N 24°10' W 076°29'0 0.0
2018-Mar-20 21:28N 24°10' W 076°29'0 0.0
2018-Mar-20 20:58N 24°10' W 076°29'0 0.1
2018-Mar-20 20:30N 24°10' W 076°29'1 2.4
2018-Mar-20 20:00N 24°08' W 076°29'  
2018-Mar-14 21:36N 23°58' W 076°22'0 0.0
2018-Mar-14 21:06N 23°58' W 076°22'0 0.0
2018-Mar-14 20:51N 23°58' W 076°22'0 1.3
2018-Mar-14 20:29N 23°59' W 076°22'510.3
2018-Mar-14 20:00N 24°03' W 076°25'510.7
2018-Mar-14 19:30N 24°07' W 076°28'3 5.0
2018-Mar-14 18:56N 24°10' W 076°28'0 0.9
2018-Mar-14 18:26N 24°11' W 076°28'0 1.0
2018-Mar-14 18:01N 24°11' W 076°28'0 0.0
2018-Mar-14 17:28N 24°11' W 076°28'0 0.0
2018-Mar-14 16:58N 24°11' W 076°28'0 0.0
2018-Mar-14 16:28N 24°11' W 076°28'0 0.0
2018-Mar-14 15:49N 24°11' W 076°28'0 0.0
2018-Mar-14 15:31N 24°11' W 076°28'0 0.0
2018-Mar-14 15:01N 24°11' W 076°28'0 0.0
2018-Mar-14 13:31N 24°11' W 076°28'0 0.0
2018-Mar-14 13:01N 24°11' W 076°28'0 0.0
2018-Mar-14 12:31N 24°11' W 076°28'0 0.0
2018-Mar-14 06:37N 24°11' W 076°28'0 0.0
2018-Mar-14 06:31N 24°11' W 076°28'0 0.0
2018-Mar-14 06:01N 24°11' W 076°28'0 0.0
2018-Mar-14 05:13N 24°11' W 076°28'0 0.0
2018-Mar-14 04:40N 24°11' W 076°28'0 0.0
2018-Mar-14 04:25N 24°11' W 076°28'0 0.0
2018-Mar-14 04:01N 24°11' W 076°28'0 0.0
2018-Mar-14 03:25N 24°11' W 076°28'0 0.0
2018-Mar-14 02:49N 24°11' W 076°28'0 0.0
2018-Mar-14 02:25N 24°11' W 076°28'0 0.0
2018-Mar-14 01:55N 24°11' W 076°28'0 0.0
2018-Mar-14 01:31N 24°11' W 076°28'0 0.0
2018-Mar-14 00:58N 24°11' W 076°28'0 0.0
2018-Mar-14 00:31N 24°11' W 076°28'  
Track history (hours):
 
Tides and Currents Weather Stations Pressure Air Temp Water Temp Dewpoint Dewpoint Depression Visibility Wind Speed Wind Dir Waves Ship Positions

Carol Ann

Owner: Harangody, James J, West Palm Beach, FL. More information available from US FCC via Universal Licensing System and Coast Guard Vessel Documentation Center.

Last reported at 2018-Mar-21 12:31 UTC. Time now 2018-Jun-21 09:59 UTC.
Position N 24°18' W 076°39'.
Warning: this ship's position is months out of date.

Length 27 m.

Type: Pleasure craft. MMSI: 338877000.

Date/timePositionNaut miles runAvg speedWind from/ knotsBaromVisibWave heightAir tempDewpointWater temp
2018-Mar-21 12:31N 24°18' W 076°39'111.2
2018-Mar-21 12:26N 24°18' W 076°38'511.1
2018-Mar-21 11:58N 24°14' W 076°34'511.1
2018-Mar-21 11:29N 24°11' W 076°30'2 3.1
2018-Mar-21 10:59N 24°10' W 076°29'0 0.0
2018-Mar-21 10:08N 24°10' W 076°29'0 0.0
2018-Mar-21 09:59N 24°10' W 076°29'0 0.0
2018-Mar-21 09:23N 24°10' W 076°29'0 0.0
2018-Mar-21 08:59N 24°10' W 076°29'0 0.0
2018-Mar-21 08:23N 24°10' W 076°29'0 0.0
2018-Mar-21 07:59N 24°10' W 076°29'0 0.0
2018-Mar-21 07:29N 24°10' W 076°29'0 0.0
2018-Mar-21 06:56N 24°10' W 076°29'0 0.0
2018-Mar-21 06:08N 24°10' W 076°29'0 0.0
2018-Mar-21 05:56N 24°10' W 076°29'0 0.0
2018-Mar-21 05:20N 24°10' W 076°29'0 0.0
2018-Mar-21 04:50N 24°10' W 076°29'0 0.0
2018-Mar-21 04:26N 24°10' W 076°29'0 0.0
2018-Mar-21 03:59N 24°10' W 076°29'0 0.0
2018-Mar-21 03:29N 24°10' W 076°29'0 0.0
2018-Mar-21 02:56N 24°10' W 076°29'0 0.0
2018-Mar-21 02:26N 24°10' W 076°29'0 0.0
2018-Mar-21 01:59N 24°10' W 076°29'0 0.0
2018-Mar-20 23:59N 24°10' W 076°29'0 0.0
2018-Mar-20 23:28N 24°10' W 076°29'0 0.0
2018-Mar-20 22:58N 24°10' W 076°29'0 0.0
2018-Mar-20 22:28N 24°10' W 076°29'0 0.0
2018-Mar-20 21:58N 24°10' W 076°29'0 0.0
2018-Mar-20 21:28N 24°10' W 076°29'0 0.0
2018-Mar-20 20:58N 24°10' W 076°29'0 0.1
2018-Mar-20 20:30N 24°10' W 076°29'1 2.4
2018-Mar-20 20:00N 24°08' W 076°29'  
2018-Mar-14 21:36N 23°58' W 076°22'0 0.0
2018-Mar-14 21:06N 23°58' W 076°22'0 0.0
2018-Mar-14 20:51N 23°58' W 076°22'0 1.3
2018-Mar-14 20:29N 23°59' W 076°22'510.3
2018-Mar-14 20:00N 24°03' W 076°25'510.7
2018-Mar-14 19:30N 24°07' W 076°28'3 5.0
2018-Mar-14 18:56N 24°10' W 076°28'0 0.9
2018-Mar-14 18:26N 24°11' W 076°28'0 1.0
2018-Mar-14 18:01N 24°11' W 076°28'0 0.0
2018-Mar-14 17:28N 24°11' W 076°28'0 0.0
2018-Mar-14 16:58N 24°11' W 076°28'0 0.0
2018-Mar-14 16:28N 24°11' W 076°28'0 0.0
2018-Mar-14 15:49N 24°11' W 076°28'0 0.0
2018-Mar-14 15:31N 24°11' W 076°28'0 0.0
2018-Mar-14 15:01N 24°11' W 076°28'0 0.0
2018-Mar-14 13:31N 24°11' W 076°28'0 0.0
2018-Mar-14 13:01N 24°11' W 076°28'0 0.0
2018-Mar-14 12:31N 24°11' W 076°28'0 0.0
2018-Mar-14 06:37N 24°11' W 076°28'0 0.0
2018-Mar-14 06:31N 24°11' W 076°28'0 0.0
2018-Mar-14 06:01N 24°11' W 076°28'0 0.0
2018-Mar-14 05:13N 24°11' W 076°28'0 0.0
2018-Mar-14 04:40N 24°11' W 076°28'0 0.0
2018-Mar-14 04:25N 24°11' W 076°28'0 0.0
2018-Mar-14 04:01N 24°11' W 076°28'0 0.0
2018-Mar-14 03:25N 24°11' W 076°28'0 0.0
2018-Mar-14 02:49N 24°11' W 076°28'0 0.0
2018-Mar-14 02:25N 24°11' W 076°28'0 0.0
2018-Mar-14 01:55N 24°11' W 076°28'0 0.0
2018-Mar-14 01:31N 24°11' W 076°28'0 0.0
2018-Mar-14 00:58N 24°11' W 076°28'0 0.0
2018-Mar-14 00:31N 24°11' W 076°28'  

Dump ship's entire track history